Time;durP1;ratioP1;P1;durP2;ratioP2;P2;SDS_P1;SDS_P2;PMS_P1;PMS_P2;Temp;Humidity;BMP_temperature;BMP_pressure;BME280_temperature;BME280_humidity;BME280_pressure;Samples;Min_cycle;Max_cycle;Signal;HPM_P1;HPM_P2
2022/09/29 00:01:27;;;;;;;13.23;8.88;;;;;;;5.73;100.00;100004.38;6178997;23;20433;-91
2022/09/29 00:03:52;;;;;;;13.95;8.45;;;;;;;5.69;100.00;99994.19;6180390;23;20009;-92
2022/09/29 00:06:18;;;;;;;14.45;8.55;;;;;;;5.59;100.00;99985.78;6181071;23;20049;-93
2022/09/29 00:08:44;;;;;;;12.95;7.93;;;;;;;5.54;100.00;99980.72;6179369;23;20013;-92
2022/09/29 00:11:19;;;;;;;15.93;8.80;;;;;;;5.66;100.00;99992.53;6179494;23;20008;-92
2022/09/29 00:13:46;;;;;;;12.20;8.32;;;;;;;5.67;100.00;99999.34;6179185;23;20012;-93
2022/09/29 00:16:12;;;;;;;12.88;8.27;;;;;;;5.58;100.00;99994.38;6180837;23;20083;-93
2022/09/29 00:18:38;;;;;;;14.35;8.15;;;;;;;5.63;100.00;99997.69;6182270;23;20007;-92
2022/09/29 00:21:06;;;;;;;13.73;8.52;;;;;;;5.58;100.00;100004.66;6181892;23;20005;-92
2022/09/29 00:23:33;;;;;;;13.77;8.15;;;;;;;5.47;100.00;99980.84;6179814;23;20008;-92
2022/09/29 00:26:07;;;;;;;14.60;8.30;;;;;;;5.59;100.00;100002.94;6177807;23;20407;-92
2022/09/29 00:28:34;;;;;;;14.07;8.87;;;;;;;5.55;100.00;99994.41;6179812;23;20004;-91
2022/09/29 00:31:00;;;;;;;14.85;9.02;;;;;;;5.42;100.00;99977.50;6180731;23;20087;-91
2022/09/29 00:33:29;;;;;;;15.73;9.02;;;;;;;5.45;100.00;99986.03;6180254;23;20005;-92
2022/09/29 00:35:59;;;;;;;13.57;8.07;;;;;;;5.53;100.00;100002.13;6181565;23;20028;-92
2022/09/29 00:38:25;;;;;;;14.82;8.88;;;;;;;5.52;100.00;99999.63;6179932;23;20008;-90
2022/09/29 00:40:50;;;;;;;15.52;8.63;;;;;;;5.47;100.00;99994.53;6180122;23;20028;-93
2022/09/29 00:43:43;;;;;;;15.52;9.18;;;;;;;5.38;100.00;99975.88;6179473;23;20004;-92
2022/09/29 00:46:11;;;;;;;14.52;8.50;;;;;;;5.37;100.00;99985.28;6181272;23;20497;-92
2022/09/29 00:48:37;;;;;;;14.30;8.52;;;;;;;5.37;100.00;99985.28;6180008;23;20402;-93
2022/09/29 00:51:03;;;;;;;14.65;9.23;;;;;;;5.35;100.00;99981.91;6181288;23;20059;-92
2022/09/29 00:53:28;;;;;;;14.45;8.80;;;;;;;5.36;100.00;99982.75;6179272;23;20009;-91
2022/09/29 00:56:04;;;;;;;14.25;9.00;;;;;;;5.26;100.00;99970.91;6181482;23;20029;-92
2022/09/29 00:58:35;;;;;;;13.63;8.38;;;;;;;5.26;100.00;99978.63;6181561;23;20001;-92
2022/09/29 01:01:01;;;;;;;16.38;9.00;;;;;;;5.31;100.00;99994.81;6180928;23;20007;-92
2022/09/29 01:03:32;;;;;;;13.73;8.68;;;;;;;5.28;100.00;99989.72;6180376;23;20020;-93
2022/09/29 01:06:01;;;;;;;13.48;8.57;;;;;;;5.18;100.00;99965.91;6181468;23;20423;-92
2022/09/29 01:08:58;;;;;;;15.18;8.65;;;;;;;5.32;100.00;99992.22;6181534;23;20024;-91
2022/09/29 01:11:24;;;;;;;14.68;8.75;;;;;;;5.23;100.00;99978.69;6180864;23;20009;-92
2022/09/29 01:13:51;;;;;;;14.13;8.82;;;;;;;5.13;100.00;99971.09;6181059;23;20005;-92
2022/09/29 01:16:17;;;;;;;14.00;8.70;;;;;;;5.21;100.00;99980.41;6181841;23;20013;-92
2022/09/29 01:18:44;;;;;;;12.90;8.35;;;;;;;5.16;100.00;99985.63;6182429;23;20008;-92
2022/09/29 01:21:39;;;;;;;14.15;8.52;;;;;;;5.22;100.00;99985.53;6181824;23;20001;-91
2022/09/29 01:24:17;;;;;;;12.98;8.13;;;;;;;5.25;100.00;99989.78;6179741;23;20120;-93
2022/09/29 01:26:57;;;;;;;14.27;8.60;;;;;;;5.20;100.00;99989.84;6180972;23;20016;-92
2022/09/29 01:29:44;;;;;;;12.73;8.02;;;;;;;5.17;100.00;100000.19;6181635;23;20008;-93
2022/09/29 01:32:28;;;;;;;12.32;8.10;;;;;;;5.14;100.00;99997.66;6181708;23;20500;-92
2022/09/29 01:35:03;;;;;;;14.70;8.07;;;;;;;4.99;100.00;99975.59;6180738;23;20088;-92
2022/09/29 01:38:01;;;;;;;14.75;8.43;;;;;;;4.99;100.00;99979.88;6182347;23;20459;-92
2022/09/29 01:41:09;;;;;;;13.45;8.15;;;;;;;5.03;100.00;99996.97;6179936;23;20016;-91
2022/09/29 01:43:44;;;;;;;14.90;7.80;;;;;;;4.91;100.00;99985.16;6181241;23;20435;-90
2022/09/29 01:46:21;;;;;;;11.55;7.38;;;;;;;4.92;100.00;99985.97;6180664;23;20008;-91
2022/09/29 01:48:51;;;;;;;13.10;7.75;;;;;;;4.94;100.00;99992.81;6181780;23;20001;-91
2022/09/29 01:51:26;;;;;;;13.00;7.82;;;;;;;4.82;100.00;99979.31;6181451;23;20016;-91
2022/09/29 01:53:56;;;;;;;13.63;8.15;;;;;;;4.82;100.00;99992.13;6179975;23;20407;-91
2022/09/29 01:56:32;;;;;;;15.50;8.35;;;;;;;4.73;100.00;99977.69;6180209;23;20080;-90
2022/09/29 01:59:14;;;;;;;12.35;7.88;;;;;;;4.70;100.00;99977.75;6179740;23;20307;-90
2022/09/29 02:01:45;;;;;;;12.73;7.72;;;;;;;4.79;100.00;99998.16;6179020;23;20001;-91
2022/09/29 02:04:35;;;;;;;15.48;7.90;;;;;;;4.72;100.00;99989.69;6178778;23;20001;-90
2022/09/29 02:07:06;;;;;;;14.63;7.57;;;;;;;4.73;100.00;99993.09;6177173;23;20079;-92
2022/09/29 02:09:41;;;;;;;12.52;7.38;;;;;;;4.69;100.00;99992.31;6180961;23;20032;-91
2022/09/29 02:12:11;;;;;;;12.07;7.85;;;;;;;4.69;100.00;99999.16;6181600;23;20587;-91
2022/09/29 02:14:42;;;;;;;11.95;7.63;;;;;;;4.70;100.00;99998.28;6180955;23;20061;-91
2022/09/29 02:17:18;;;;;;;11.93;7.80;;;;;;;4.61;100.00;99985.56;6179373;23;20028;-91
2022/09/29 02:19:45;;;;;;;13.38;8.15;;;;;;;4.66;100.00;100000.03;6181552;23;20007;-90
2022/09/29 02:22:11;;;;;;;14.23;7.95;;;;;;;4.57;100.00;99982.19;6180223;23;20088;-90
2022/09/29 02:24:36;;;;;;;14.27;8.45;;;;;;;4.62;100.00;99995.84;6180646;23;20028;-90
2022/09/29 02:27:03;;;;;;;15.60;8.00;;;;;;;4.52;100.00;99981.41;6180576;23;20389;-90
2022/09/29 02:29:29;;;;;;;14.80;7.50;;;;;;;4.57;100.00;99989.88;6181576;23;20004;-90
2022/09/29 02:31:56;;;;;;;14.25;8.80;;;;;;;4.56;100.00;99995.91;6178540;23;20331;-91
2022/09/29 02:34:22;;;;;;;15.63;8.98;;;;;;;4.60;100.00;99992.44;6178449;23;20005;-91
2022/09/29 02:37:32;;;;;;;13.52;8.45;;;;;;;4.65;100.00;100006.03;6179031;23;20001;-91
2022/09/29 02:40:25;;;;;;;12.55;8.30;;;;;;;4.64;100.00;100014.59;6119732;23;20036;-92
2022/09/29 02:43:09;;;;;;;14.85;8.85;;;;;;;4.64;100.00;100012.03;6180464;23;20013;-94
2022/09/29 02:46:06;;;;;;;14.82;8.65;;;;;;;4.51;100.00;99989.13;6180600;23;20084;-92
2022/09/29 02:49:12;;;;;;;13.95;8.38;;;;;;;4.62;100.00;100007.81;6180917;23;20008;-93
2022/09/29 02:51:47;;;;;;;14.85;9.18;;;;;;;4.49;100.00;99989.16;6181317;23;20024;-94
2022/09/29 02:54:32;;;;;;;13.68;8.32;;;;;;;4.44;100.00;99980.66;6181283;23;20055;-92
2022/09/29 02:57:16;;;;;;;16.83;9.10;;;;;;;4.58;100.00;100014.69;6180049;23;20051;-92
2022/09/29 02:59:46;;;;;;;;;;;;;;;4.59;100.00;100012.97;6182786;23;20011;-93
2022/09/29 03:02:17;;;;;;;15.93;8.85;;;;;;;4.50;100.00;99998.56;6180245;23;19904;-94
2022/09/29 03:04:42;;;;;;;13.30;8.80;;;;;;;4.46;100.00;99996.03;6180748;23;20012;-92
2022/09/29 03:07:08;;;;;;;17.15;9.05;;;;;;;4.46;100.00;99996.03;6180311;23;20029;-92
2022/09/29 03:09:33;;;;;;;14.70;9.70;;;;;;;4.52;100.00;100004.50;6180202;23;20009;-93
2022/09/29 03:11:59;;;;;;;18.45;9.95;;;;;;;4.52;100.00;100016.47;6182413;23;20338;-93
2022/09/29 03:14:25;;;;;;;16.77;10.02;;;;;;;4.44;100.00;100002.88;6182471;23;20008;-93
2022/09/29 03:16:50;;;;;;;16.80;9.77;;;;;;;4.45;100.00;100002.88;6180138;23;20012;-92
2022/09/29 03:19:16;;;;;;;16.23;9.57;;;;;;;4.41;100.00;99995.25;6177676;23;20004;-92
2022/09/29 03:21:42;;;;;;;15.65;9.63;;;;;;;4.34;100.00;99986.78;6180410;23;20004;-92
2022/09/29 03:24:10;;;;;;;17.02;9.68;;;;;;;4.38;100.00;99991.84;6180885;23;20016;-93
2022/09/29 03:26:36;;;;;;;14.13;9.18;;;;;;;4.35;100.00;99989.34;6180345;23;20005;-92
2022/09/29 03:29:02;;;;;;;16.83;9.48;;;;;;;4.27;100.00;99972.34;6180404;23;20339;-94
2022/09/29 03:31:27;;;;;;;16.27;9.25;;;;;;;4.45;100.00;100004.59;6180116;23;20518;-92
2022/09/29 03:33:53;;;;;;;16.98;9.48;;;;;;;4.28;100.00;99981.72;6179678;23;20008;-94
2022/09/29 03:36:18;;;;;;;15.85;9.85;;;;;;;4.33;100.00;99988.50;6178976;23;20012;-92
2022/09/29 03:38:45;;;;;;;18.08;9.13;;;;;;;4.40;100.00;100002.09;6179657;23;20008;-93
2022/09/29 03:41:11;;;;;;;19.08;10.02;;;;;;;4.24;100.00;99975.78;6181320;23;20426;-92
2022/09/29 03:43:36;;;;;;;16.88;9.70;;;;;;;4.25;100.00;99982.59;6180899;23;20004;-92
2022/09/29 03:46:02;;;;;;;19.65;10.20;;;;;;;4.25;100.00;99992.00;6181172;23;20011;-93
2022/09/29 03:48:30;;;;;;;17.67;10.07;;;;;;;4.18;100.00;99983.53;6181520;23;20456;-92
2022/09/29 03:50:56;;;;;;;17.85;10.05;;;;;;;4.24;100.00;99993.72;6181229;23;20005;-92
2022/09/29 03:53:27;;;;;;;18.35;10.43;;;;;;;4.20;100.00;99991.22;6180319;23;20095;-92
2022/09/29 03:55:52;;;;;;;17.42;10.63;;;;;;;4.20;100.00;99994.63;6181783;23;20081;-92
2022/09/29 03:58:18;;;;;;;17.10;10.00;;;;;;;4.31;100.00;100012.47;6181703;23;20024;-92
2022/09/29 04:00:47;;;;;;;16.40;10.32;;;;;;;4.30;100.00;100015.88;6180892;23;20005;-94
2022/09/29 04:03:12;;;;;;;18.45;10.57;;;;;;;4.28;100.00;100017.63;6181843;23;20016;-92
2022/09/29 04:05:44;;;;;;;16.48;10.07;;;;;;;4.21;100.00;100011.72;6180000;23;20001;-93
2022/09/29 04:08:09;;;;;;;19.38;10.50;;;;;;;4.14;100.00;99999.84;6178664;23;20052;-91
2022/09/29 04:10:36;;;;;;;19.48;10.48;;;;;;;4.19;100.00;100012.59;6179507;23;20038;-92
2022/09/29 04:13:02;;;;;;;17.77;10.50;;;;;;;4.14;100.00;100001.56;6180905;23;20005;-90
2022/09/29 04:15:27;;;;;;;19.38;10.73;;;;;;;4.14;100.00;100002.41;6180738;23;20001;-91
2022/09/29 04:17:52;;;;;;;18.67;10.77;;;;;;;4.21;100.00;100024.56;6154232;23;20016;-91
2022/09/29 04:20:18;;;;;;;17.50;10.50;;;;;;;4.06;100.00;99999.06;6154899;23;20092;-92
2022/09/29 04:22:43;;;;;;;19.42;11.27;;;;;;;4.20;100.00;100027.97;6154744;23;20103;-91
2022/09/29 04:25:09;;;;;;;20.80;10.57;;;;;;;4.14;100.00;100014.38;6181160;23;20084;-91
2022/09/29 04:27:35;;;;;;;19.48;11.27;;;;;;;4.17;100.00;100030.56;6153674;23;20033;-91
2022/09/29 04:30:00;;;;;;;17.50;10.55;;;;;;;4.05;100.00;100020.44;6154128;23;20001;-91
2022/09/29 04:32:26;;;;;;;19.13;11.57;;;;;;;4.15;100.00;100037.44;6153062;23;20001;-91
2022/09/29 04:34:54;;;;;;;16.58;10.32;;;;;;;4.02;100.00;100012.81;6153357;23;20316;-90
2022/09/29 04:37:20;;;;;;;19.95;10.48;;;;;;;4.13;100.00;100030.63;6153179;23;20005;-91
2022/09/29 04:39:45;;;;;;;23.42;11.20;;;;;;;4.08;100.00;100023.00;6155013;23;20012;-91
2022/09/29 04:42:11;;;;;;;19.48;11.20;;;;;;;4.12;100.00;100031.47;6179500;23;20008;-91
2022/09/29 04:44:38;;;;;;;17.55;10.50;;;;;;;4.14;100.00;100035.75;6180777;23;20009;-91
2022/09/29 04:47:04;;;;;;;18.42;11.05;;;;;;;4.09;100.00;100036.66;6155967;23;20001;-91
2022/09/29 04:49:30;;;;;;;20.50;10.80;;;;;;;3.96;100.00;100011.13;6156601;23;20059;-91
2022/09/29 04:51:55;;;;;;;20.27;11.02;;;;;;;3.94;100.00;100010.31;6156083;23;20005;-91
2022/09/29 04:54:26;;;;;;;18.88;11.00;;;;;;;3.92;100.00;100019.72;6181205;23;20017;-91
2022/09/29 04:56:52;;;;;;;19.20;11.32;;;;;;;4.02;100.00;100038.44;6181951;23;20005;-91
2022/09/29 04:59:17;;;;;;;19.13;11.77;;;;;;;3.97;100.00;100030.78;6181144;23;20127;-92
2022/09/29 05:01:50;;;;;;;20.92;11.65;;;;;;;3.98;100.00;100044.44;6182640;23;20001;-91
2022/09/29 05:04:16;;;;;;;19.08;10.98;;;;;;;3.95;100.00;100040.22;6181001;23;20001;-90
2022/09/29 05:06:43;;;;;;;23.08;11.48;;;;;;;3.98;100.00;100042.75;6182736;23;20069;-90
2022/09/29 05:09:11;;;;;;;19.08;11.27;;;;;;;4.02;100.00;100058.97;6156419;23;20079;-91
2022/09/29 05:11:37;;;;;;;21.23;11.60;;;;;;;3.97;100.00;100047.88;6183214;23;20001;-93
2022/09/29 05:14:03;;;;;;;19.95;11.05;;;;;;;3.97;100.00;100048.72;6156850;23;20092;-90
2022/09/29 05:16:31;;;;;;;18.75;10.63;;;;;;;3.89;100.00;100039.44;6182231;23;20001;-91
2022/09/29 05:19:01;;;;;;;20.30;10.75;;;;;;;3.82;100.00;100036.03;6156113;23;20009;-90
2022/09/29 05:21:26;;;;;;;20.48;11.27;;;;;;;3.95;100.00;100060.72;6181464;23;20016;-90
2022/09/29 05:23:52;;;;;;;19.40;10.75;;;;;;;3.85;100.00;100053.13;6155972;23;20985;-92
2022/09/29 05:26:17;;;;;;;19.13;10.38;;;;;;;3.82;100.00;100053.97;6181221;23;20047;-92
2022/09/29 05:28:45;;;;;;;19.73;10.85;;;;;;;3.91;100.00;100071.00;6182815;23;19997;-90
2022/09/29 05:31:11;;;;;;;18.70;10.70;;;;;;;3.83;100.00;100059.97;6155918;23;20005;-91
2022/09/29 05:33:37;;;;;;;20.08;11.20;;;;;;;3.81;100.00;100066.84;6182285;23;20398;-92
2022/09/29 05:36:07;;;;;;;22.73;11.52;;;;;;;3.74;100.00;100054.94;6155534;23;20072;-91
2022/09/29 05:38:34;;;;;;;19.52;10.57;;;;;;;3.74;100.00;100057.50;6156107;23;20012;-90
2022/09/29 05:41:03;;;;;;;19.40;11.30;;;;;;;3.81;100.00;100077.94;6183029;23;20032;-91
2022/09/29 05:43:29;;;;;;;18.17;10.68;;;;;;;3.71;100.00;100066.06;6154749;23;20430;-91
2022/09/29 05:46:05;;;;;;;22.25;11.60;;;;;;;3.79;100.00;100082.22;6183157;23;20012;-91
2022/09/29 05:48:34;;;;;;;19.38;10.57;;;;;;;3.79;100.00;100079.66;6181527;23;20008;-92
2022/09/29 05:51:11;;;;;;;18.55;10.80;;;;;;;3.72;100.00;100062.63;6158037;23;20005;-93
2022/09/29 05:53:37;;;;;;;20.17;10.95;;;;;;;3.75;100.00;100072.03;6158055;23;20342;-92
2022/09/29 05:56:07;;;;;;;19.50;11.50;;;;;;;3.81;100.00;100083.06;6157778;23;20001;-93
2022/09/29 05:58:35;;;;;;;22.58;11.75;;;;;;;3.80;100.00;100072.81;6159131;23;20123;-92
2022/09/29 06:01:09;;;;;;;21.33;11.82;;;;;;;3.86;100.00;100091.56;6159494;23;20450;-93
2022/09/29 06:03:36;;;;;;;22.90;11.65;;;;;;;3.91;100.00;100099.19;6158280;23;20039;-93
2022/09/29 06:06:22;;;;;;;21.08;12.23;;;;;;;3.84;100.00;100087.31;6157676;23;20091;-93
2022/09/29 06:08:49;;;;;;;20.42;12.02;;;;;;;3.86;100.00;100088.16;6180888;23;20416;-94
2022/09/29 06:11:30;;;;;;;21.30;11.70;;;;;;;3.96;100.00;100110.25;6184169;23;20001;-92
2022/09/29 06:13:58;;;;;;;22.42;11.60;;;;;;;3.89;100.00;100086.41;6182496;23;20419;-92
2022/09/29 06:16:29;;;;;;;23.25;12.27;;;;;;;3.88;100.00;100089.00;6182853;23;20032;-93
2022/09/29 06:18:55;;;;;;;21.92;11.82;;;;;;;3.97;100.00;100100.00;6182771;23;20628;-94
2022/09/29 06:21:23;;;;;;;22.75;11.88;;;;;;;3.88;100.00;100087.28;6183162;23;20043;-93
2022/09/29 06:23:52;;;;;;;21.02;11.60;;;;;;;3.99;100.00;100105.13;6183299;23;20588;-94
2022/09/29 06:26:18;;;;;;;23.35;12.88;;;;;;;3.98;100.00;100100.84;6183732;23;20001;-94
2022/09/29 06:28:44;;;;;;;22.60;12.55;;;;;;;4.01;100.00;100094.84;6182661;23;20036;-93
2022/09/29 06:31:17;;;;;;;22.05;12.13;;;;;;;3.97;100.00;100092.31;6183490;23;20001;-94
2022/09/29 06:33:43;;;;;;;23.50;12.80;;;;;;;4.02;100.00;100097.41;6183197;23;20005;-93
2022/09/29 06:39:04;;;;;;;25.42;13.45;;;;;;;4.13;100.00;100105.00;6184183;23;20522;-93
2022/09/29 06:41:30;;;;;;;23.48;12.63;;;;;;;4.27;100.00;100127.09;6183471;23;20001;-92
2022/09/29 06:43:56;;;;;;;25.38;13.43;;;;;;;4.25;100.00;100122.81;6183349;23;20009;-92
2022/09/29 06:46:21;;;;;;;24.48;12.77;;;;;;;4.26;100.00;100116.84;6182760;23;20434;-92
2022/09/29 06:48:47;;;;;;;28.05;13.55;;;;;;;4.33;100.00;100134.72;6181188;23;20039;-94
2022/09/29 06:51:13;;;;;;;27.50;14.38;;;;;;;4.25;100.00;100110.84;6183503;23;20009;-93
2022/09/29 06:53:39;;;;;;;28.27;14.10;;;;;;;4.47;100.00;100133.72;6182780;23;20075;-93
2022/09/29 06:56:08;;;;;;;25.30;13.52;;;;;;;4.41;100.00;100129.50;6183268;23;20009;-93
2022/09/29 06:58:34;;;;;;;25.70;14.30;;;;;;;4.38;100.00;100109.84;6181192;23;20068;-92
2022/09/29 07:01:01;;;;;;;26.35;14.20;;;;;;;4.54;100.00;100137.94;6181366;23;20076;-93
2022/09/29 07:03:28;;;;;;;32.28;16.10;;;;;;;4.61;100.00;100149.84;6182423;23;20032;-93
2022/09/29 07:05:53;;;;;;;29.33;15.60;;;;;;;4.56;100.00;100138.78;6184491;23;20028;-93
2022/09/29 07:08:18;;;;;;;33.40;16.67;;;;;;;4.61;100.00;100140.41;6184019;23;20524;-93
2022/09/29 07:10:45;;;;;;;30.38;16.45;;;;;;;4.72;100.00;100146.28;6183372;23;20009;-93
2022/09/29 07:13:11;;;;;;;28.80;15.70;;;;;;;4.84;100.00;100149.59;6182531;23;20032;-93
2022/09/29 07:15:36;;;;;;;30.77;16.38;;;;;;;4.74;100.00;100138.56;6183127;23;20001;-93
2022/09/29 07:18:04;;;;;;;32.63;16.85;;;;;;;4.81;100.00;100139.34;6182533;23;20002;-94
2022/09/29 07:20:32;;;;;;;34.10;16.35;;;;;;;4.83;100.00;100127.34;6182843;23;20005;-93
2022/09/29 07:22:58;;;;;;;32.95;17.10;;;;;;;4.99;100.00;100151.94;6183101;23;20001;-93
2022/09/29 07:25:24;;;;;;;33.10;17.70;;;;;;;5.09;100.00;100168.97;6182509;23;20005;-93
2022/09/29 07:27:50;;;;;;;32.85;18.13;;;;;;;5.08;100.00;100162.97;6183524;23;20004;-92
2022/09/29 07:30:17;;;;;;;33.35;17.00;;;;;;;5.05;100.00;100147.59;6182622;23;20486;-92
2022/09/29 07:32:45;;;;;;;31.92;16.70;;;;;;;5.12;100.00;100144.06;6184630;23;20327;-92
2022/09/29 07:35:13;;;;;;;29.25;15.57;;;;;;;5.27;100.00;100168.72;6182251;23;20355;-94
2022/09/29 07:37:38;;;;;;;36.33;18.25;;;;;;;5.30;100.00;100165.28;6181304;23;20001;-94
2022/09/29 07:40:04;;;;;;;36.92;18.20;;;;;;;5.37;100.00;100165.19;6183633;23;20011;-94
2022/09/29 07:42:35;;;;;;;33.67;18.98;;;;;;;5.35;100.00;100153.22;6181742;23;20331;-94
2022/09/29 07:45:01;;;;;;;34.92;18.48;;;;;;;5.42;100.00;100153.09;6183598;23;20008;-94
2022/09/29 07:47:28;;;;;;;34.33;18.38;;;;;;;5.45;100.00;100149.66;6181674;23;19997;-93
2022/09/29 07:49:54;;;;;;;31.48;17.88;;;;;;;5.45;100.00;100153.06;6181995;23;20068;-93
2022/09/29 07:52:19;;;;;;;32.63;17.58;;;;;;;5.68;100.00;100186.16;6181689;23;20059;-94
2022/09/29 07:54:45;;;;;;;36.10;18.77;;;;;;;5.68;100.00;100181.00;6181539;23;20056;-93
2022/09/29 07:57:10;;;;;;;37.65;18.88;;;;;;;5.68;100.00;100165.56;6181415;23;20426;-93
2022/09/29 07:59:36;;;;;;;39.92;19.80;;;;;;;5.68;100.00;100164.72;6181195;23;20005;-94
2022/09/29 08:02:03;;;;;;;38.78;20.40;;;;;;;5.77;100.00;100168.03;6181287;23;19997;-93
2022/09/29 08:04:28;;;;;;;44.08;21.63;;;;;;;5.91;100.00;100176.41;6183157;23;20080;-94
2022/09/29 08:06:55;;;;;;;37.33;20.10;;;;;;;6.11;100.00;100195.81;6179838;23;20616;-93
2022/09/29 08:09:32;;;;;;;42.55;21.73;;;;;;;6.27;100.00;100198.13;6155444;23;20009;-93
2022/09/29 08:12:00;;;;;;;43.58;22.65;;;;;;;6.50;100.00;100200.31;6155827;23;20092;-93
2022/09/29 08:14:26;;;;;;;46.88;23.20;;;;;;;6.69;100.00;100191.34;6158364;23;20009;-93
2022/09/29 08:17:00;;;;;;;47.80;23.80;;;;;;;6.90;100.00;100194.41;6158008;23;20083;-93
2022/09/29 08:19:28;;;;;;;;;;;;;;;7.17;100.00;100208.47;6158461;23;20419;-94
2022/09/29 08:22:24;;;;;;;40.95;20.88;;;;;;;7.29;100.00;100200.53;6157501;23;19911;-93
2022/09/29 08:24:56;;;;;;;40.72;21.10;;;;;;;7.35;100.00;100188.34;6156503;23;20449;-94
2022/09/29 08:27:33;;;;;;;43.35;22.52;;;;;;;7.52;100.00;100206.03;6181344;23;20142;-93
2022/09/29 08:30:01;;;;;;;43.30;22.77;;;;;;;7.61;100.00;100207.56;6181187;23;20450;-91
2022/09/29 08:32:31;;;;;;;42.28;21.55;;;;;;;7.62;100.00;100197.22;6157413;23;20053;-92
2022/09/29 08:34:56;;;;;;;44.58;22.63;;;;;;;7.84;100.00;100210.50;6156256;23;20087;-90
2022/09/29 08:37:35;;;;;;;40.50;21.92;;;;;;;7.86;100.00;100198.38;6153797;23;20040;-92
2022/09/29 08:40:00;;;;;;;39.63;21.50;;;;;;;8.01;100.00;100218.69;6181928;23;20024;-91
2022/09/29 08:42:50;;;;;;;41.00;21.95;;;;;;;8.13;100.00;100227.88;6156549;23;20005;-91
2022/09/29 08:45:48;;;;;;;38.30;21.40;;;;;;;8.22;100.00;100230.25;6155368;23;20023;-92
2022/09/29 08:48:24;;;;;;;37.75;21.15;;;;;;;8.18;100.00;100202.81;6179329;23;20012;-90
2022/09/29 08:51:04;;;;;;;37.55;20.88;;;;;;;8.41;100.00;100226.34;6156767;23;20013;-92
2022/09/29 08:53:42;;;;;;;35.72;20.92;;;;;;;8.49;100.00;100221.00;6156975;23;20009;-92
2022/09/29 08:56:17;;;;;;;40.70;21.77;;;;;;;8.56;100.00;100222.53;6182341;23;20028;-91
2022/09/29 08:58:43;;;;;;;38.97;20.48;;;;;;;8.61;100.00;100218.09;6156365;23;20008;-92
2022/09/29 09:01:11;;;;;;;35.92;20.45;;;;;;;8.79;100.00;100233.16;6183977;23;20008;-92
2022/09/29 09:04:15;;;;;;;38.33;20.73;;;;;;;8.82;100.00;100229.63;6156844;23;20009;-92
2022/09/29 09:06:53;;;;;;;34.80;19.42;;;;;;;8.92;100.00;100241.41;6157367;23;20577;-93
2022/09/29 09:09:40;;;;;;;35.38;20.83;;;;;;;8.88;100.00;100224.28;6183386;23;20001;-92
2022/09/29 09:12:39;;;;;;;32.58;19.27;;;;;;;9.00;100.00;100229.16;6183418;23;20512;-93
2022/09/29 09:15:23;;;;;;;35.08;19.48;;;;;;;9.15;100.00;100243.38;6183826;23;20382;-92
2022/09/29 09:18:14;;;;;;;33.47;18.77;;;;;;;9.25;100.00;100250.00;6158359;23;20072;-92
2022/09/29 09:20:51;;;;;;;32.85;18.63;;;;;;;9.32;100.00;100242.03;6157766;23;20008;-92
2022/09/29 09:23:30;;;;;;;28.40;17.73;;;;;;;9.48;100.00;100251.03;6159441;23;20599;-94
2022/09/29 09:26:00;;;;;;;33.10;17.08;;;;;;;9.60;100.00;100241.22;6158967;23;20009;-94
2022/09/29 09:28:33;;;;;;;27.45;16.98;;;;;;;9.73;100.00;100237.38;6158896;23;20005;-95
2022/09/29 09:31:25;;;;;;;28.73;17.23;;;;;;;9.89;100.00;100243.81;6156938;23;20004;-94
2022/09/29 09:34:01;;;;;;;27.80;15.73;;;;;;;9.91;100.00;100232.50;6159679;23;20494;-93
2022/09/29 09:36:46;;;;;;;25.95;15.38;;;;;;;10.08;100.00;100251.84;6185084;23;20005;-94
2022/09/29 09:39:27;;;;;;;25.92;16.08;;;;;;;10.09;100.00;100241.44;6158764;23;20005;-95
2022/09/29 09:41:57;;;;;;;24.40;15.23;;;;;;;10.29;100.00;100251.22;6158905;23;20012;-93
2022/09/29 09:44:46;;;;;;;21.45;12.68;;;;;;;10.37;100.00;100238.84;6158588;23;20009;-93
2022/09/29 09:47:37;;;;;;;14.90;9.20;;;;;;;10.62;100.00;100254.44;6158648;23;20453;-94
2022/09/29 09:50:15;;;;;;;16.20;10.05;;;;;;;10.79;100.00;100259.03;6158750;23;20012;-93
2022/09/29 09:52:52;;;;;;;16.95;9.82;;;;;;;10.85;100.00;100243.31;6158588;23;20008;-93
2022/09/29 09:55:23;;;;;;;16.67;9.40;;;;;;;11.00;100.00;100248.78;6157264;23;20009;-91
2022/09/29 09:58:04;;;;;;;15.40;9.68;;;;;;;11.24;99.36;100262.66;6184023;23;20076;-93
2022/09/29 10:00:37;;;;;;;16.17;9.32;;;;;;;11.23;97.59;100253.16;6154889;23;20557;-92
2022/09/29 10:03:06;;;;;;;13.98;8.18;;;;;;;11.28;96.29;100245.22;6156337;23;20427;-91
2022/09/29 10:05:37;;;;;;;14.52;9.07;;;;;;;11.48;97.47;100261.75;6158026;23;20118;-94
2022/09/29 10:08:10;;;;;;;17.20;9.95;;;;;;;11.52;98.14;100261.66;6172640;23;20190;-94
2022/09/29 10:10:40;;;;;;;18.42;11.23;;;;;;;11.66;98.41;100267.19;6183814;23;20077;-94
2022/09/29 10:13:10;;;;;;;19.13;11.07;;;;;;;11.62;96.89;100242.22;6181897;23;20005;-92
2022/09/29 10:15:42;;;;;;;13.00;8.52;;;;;;;11.76;95.30;100268.53;6182014;23;20000;-92
2022/09/29 10:18:37;;;;;;;13.75;8.70;;;;;;;11.69;95.66;100267.03;6183168;23;21399;-93
2022/09/29 10:21:03;;;;;;;13.45;8.85;;;;;;;11.59;97.95;100252.72;6183241;23;20493;-92
2022/09/29 10:23:37;;;;;;;13.70;8.60;;;;;;;11.82;96.00;100276.94;6183673;23;20013;-94
2022/09/29 10:26:06;;;;;;;11.82;8.20;;;;;;;11.92;96.90;100269.66;6182460;23;20004;-93
2022/09/29 10:28:46;;;;;;;14.95;9.00;;;;;;;11.88;95.89;100260.28;6184183;23;20012;-93
2022/09/29 10:31:29;;;;;;;13.45;8.50;;;;;;;11.87;95.81;100259.44;6183098;23;20088;-94
2022/09/29 10:33:57;;;;;;;13.07;7.53;;;;;;;11.95;93.88;100255.69;6183415;23;20481;-94
2022/09/29 10:36:27;;;;;;;12.55;8.20;;;;;;;11.98;91.54;100268.56;6182273;23;20036;-93
2022/09/29 10:38:53;;;;;;;16.17;8.80;;;;;;;12.00;92.36;100269.38;6184794;23;20001;-93
2022/09/29 10:41:19;;;;;;;16.15;10.55;;;;;;;11.92;92.43;100261.88;6182477;23;20028;-93
2022/09/29 10:43:46;;;;;;;18.50;10.02;;;;;;;11.95;92.97;100264.34;6177552;23;20050;-92
2022/09/29 10:46:33;;;;;;;16.38;10.20;;;;;;;12.18;95.26;100279.03;6180572;23;20001;-93
2022/09/29 10:49:21;;;;;;;13.25;7.80;;;;;;;12.26;90.64;100287.38;6182455;23;20035;-94
2022/09/29 10:52:13;;;;;;;13.65;7.50;;;;;;;12.45;91.74;100277.09;6181308;23;20001;-93
2022/09/29 10:54:53;;;;;;;12.15;7.00;;;;;;;12.53;92.00;100257.69;6182492;23;20001;-94
2022/09/29 10:57:28;;;;;;;13.25;8.25;;;;;;;12.53;87.55;100262.88;6180454;23;20318;-95
2022/09/29 10:59:58;;;;;;;12.68;7.75;;;;;;;12.58;84.76;100284.31;6179835;23;20005;-94
2022/09/29 11:02:31;;;;;;;12.00;7.68;;;;;;;12.45;88.36;100264.94;6179608;23;20060;-93
2022/09/29 11:05:01;;;;;;;11.50;7.18;;;;;;;12.41;90.34;100255.59;6180523;23;20016;-95
2022/09/29 11:07:28;;;;;;;11.07;7.10;;;;;;;12.58;90.31;100265.28;6181579;23;20033;-94
2022/09/29 11:09:54;;;;;;;10.77;6.95;;;;;;;12.59;86.81;100266.97;6181072;23;20008;-93
2022/09/29 11:12:38;;;;;;;11.63;6.78;;;;;;;12.55;87.55;100271.47;6181628;23;20001;-95
2022/09/29 11:15:26;;;;;;;10.37;6.50;;;;;;;12.45;88.59;100262.34;6181323;23;20005;-93
2022/09/29 11:17:52;;;;;;;8.77;5.68;;;;;;;12.57;82.98;100290.44;6181639;23;20001;-95
2022/09/29 11:20:20;;;;;;;9.73;5.65;;;;;;;12.48;84.16;100274.38;6181354;23;20004;-95
2022/09/29 11:22:58;;;;;;;8.45;5.22;;;;;;;12.72;84.38;100291.56;6183685;23;20001;-95
2022/09/29 11:25:56;;;;;;;6.80;4.97;;;;;;;12.81;86.53;100298.16;6179338;23;20037;-93
2022/09/29 11:28:40;;;;;;;7.70;5.03;;;;;;;12.91;87.65;100287.28;6180809;23;20001;-92
2022/09/29 11:31:43;;;;;;;9.07;5.43;;;;;;;12.92;86.24;100290.72;6181872;23;20028;-93
2022/09/29 11:34:20;;;;;;;9.75;5.82;;;;;;;12.92;85.79;100286.38;6180147;23;20150;-93
2022/09/29 11:37:05;;;;;;;11.75;6.40;;;;;;;12.99;88.88;100284.34;6179572;23;20012;-93
2022/09/29 11:39:34;;;;;;;11.13;6.53;;;;;;;13.03;86.93;100283.34;6178504;23;20009;-92